Scf Explorer — WDJ4075 — position and weather

sailwx.info

Track history (hours):
 
Tides and Currents Weather Stations Pressure Air Temp Water Temp Dewpoint Dewpoint Depression Visibility Wind Speed Wind Dir Waves Ship Positions

Scf Explorer

Owner: SCF Waxler Marine LLC, St Rose, LA. More information available from US FCC via Universal Licensing System and Coast Guard Vessel Documentation Center.

Last reported at 2018-Jul-14 06:59 UTC. Time now 2018-Jul-18 08:57 UTC.
Position N 33°05' W 091°10'.

Length 48 m; draft 3.7 m.

Type: Towing. MMSI: 367774160.

Date/timePositionNaut miles runAvg speedWind from/ knotsBaromVisibWave heightAir tempDewpointWater temp
2018-Jul-14 06:59N 33°05' W 091°10'2 4.0
2018-Jul-14 06:25N 33°02' W 091°09'2 4.0
2018-Jul-14 05:49N 33°00' W 091°09'1 4.3
2018-Jul-14 05:30N 32°59' W 091°10'2 3.4
2018-Jul-14 05:00N 32°57' W 091°09'2 2.6
2018-Jul-14 04:19N 32°57' W 091°07'1 2.0
2018-Jul-14 03:47N 32°57' W 091°05'0 0.0
2018-Jul-14 03:30N 32°57' W 091°05'0 0.4
2018-Jul-14 03:00N 32°57' W 091°05'1 2.4
2018-Jul-14 02:30N 32°56' W 091°04'2 3.4
2018-Jul-14 02:00N 32°54' W 091°04'1 1.3
2018-Jul-14 01:30N 32°54' W 091°04'2 4.1
2018-Jul-14 00:59N 32°52' W 091°06'2 3.8
2018-Jul-14 00:28N 32°51' W 091°08'2 3.8
2018-Jul-13 23:51N 32°49' W 091°09'1 3.9
2018-Jul-13 23:30N 32°48' W 091°09'2 3.9
2018-Jul-13 22:55N 32°45' W 091°09'6 2.6
2018-Jul-13 20:48N 32°41' W 091°05'2 4.7
2018-Jul-13 20:28N 32°40' W 091°06'2 4.0
2018-Jul-13 19:59N 32°40' W 091°08'2 4.1
2018-Jul-13 19:30N 32°38' W 091°09'2 4.3
2018-Jul-13 19:00N 32°36' W 091°08'2 4.1
2018-Jul-13 18:30N 32°34' W 091°06'2 3.8
2018-Jul-13 18:00N 32°32' W 091°06'2 4.3
2018-Jul-13 17:30N 32°30' W 091°07'2 4.3
2018-Jul-13 17:00N 32°28' W 091°06'2 4.0
2018-Jul-13 16:30N 32°27' W 091°05'2 4.2
2018-Jul-13 16:00N 32°26' W 091°02'2 4.2
2018-Jul-13 15:30N 32°25' W 091°00'2 3.6
2018-Jul-13 15:00N 32°24' W 090°60'3 3.2
2018-Jul-13 14:00N 32°21' W 090°57'2 4.1
2018-Jul-13 13:30N 32°20' W 090°55'2 3.4
2018-Jul-13 13:00N 32°19' W 090°55'1 1.9
2018-Jul-13 12:30N 32°18' W 090°55'2 3.6
2018-Jul-13 12:00N 32°17' W 090°57'2 3.9
2018-Jul-13 11:30N 32°15' W 090°58'2 4.3
2018-Jul-13 11:00N 32°13' W 090°59'2 3.5
2018-Jul-13 10:30N 32°12' W 090°60'2 3.7
2018-Jul-13 10:00N 32°10' W 090°60'2 3.9
2018-Jul-13 09:30N 32°08' W 091°01'2 3.5
2018-Jul-13 09:00N 32°07' W 091°03'2 3.5
2018-Jul-13 08:28N 32°08' W 091°05'2 3.5
2018-Jul-13 08:00N 32°07' W 091°07'2 3.4
2018-Jul-13 07:30N 32°06' W 091°06'2 4.5
2018-Jul-13 07:00N 32°04' W 091°04'2 3.9
2018-Jul-13 06:30N 32°02' W 091°04'2 4.0
2018-Jul-13 06:00N 32°01' W 091°05'2 4.0
2018-Jul-13 05:30N 31°59' W 091°07'2 3.9
2018-Jul-13 05:00N 31°59' W 091°09'2 3.8
2018-Jul-13 04:30N 31°58' W 091°11'4 4.2
2018-Jul-13 03:37N 31°54' W 091°12'1 4.1
2018-Jul-13 03:26N 31°54' W 091°12'8 3.8
2018-Jul-13 01:21N 31°51' W 091°21'  
2018-Jul-10 03:50N 29°56' W 090°22'  
2018-Jul-07 20:00N 31°57' W 091°11'4 7.6
2018-Jul-07 19:25N 31°59' W 091°07'4 8.6
2018-Jul-07 19:00N 32°02' W 091°04'4 7.7
2018-Jul-07 18:29N 32°06' W 091°06'2 4.7
2018-Jul-07 17:59N 32°08' W 091°05'4 8.2
2018-Jul-07 17:30N 32°08' W 091°01'4 8.9
2018-Jul-07 17:00N 32°12' W 090°59'4 8.4
2018-Jul-07 16:30N 32°16' W 090°58'5 9.0
2018-Jul-07 16:00N 32°20' W 090°54'4 7.2
2018-Jul-07 15:30N 32°21' W 090°58'3 6.4
2018-Jul-07 15:00N 32°24' W 090°59'4 8.7
2018-Jul-07 14:30N 32°26' W 091°04'5 9.2
2018-Jul-07 14:00N 32°30' W 091°07'5 9.3
2018-Jul-07 13:30N 32°35' W 091°07'9 7.5
2018-Jul-07 12:15N 32°44' W 091°04'5 8.9
2018-Jul-07 11:44N 32°45' W 091°09'  
Track history (hours):
 
Tides and Currents Weather Stations Pressure Air Temp Water Temp Dewpoint Dewpoint Depression Visibility Wind Speed Wind Dir Waves Ship Positions

Scf Explorer

Owner: SCF Waxler Marine LLC, St Rose, LA. More information available from US FCC via Universal Licensing System and Coast Guard Vessel Documentation Center.

Last reported at 2018-Jul-14 06:59 UTC. Time now 2018-Jul-18 08:57 UTC.
Position N 33°05' W 091°10'.

Length 48 m; draft 3.7 m.

Type: Towing. MMSI: 367774160.

Date/timePositionNaut miles runAvg speedWind from/ knotsBaromVisibWave heightAir tempDewpointWater temp
2018-Jul-14 06:59N 33°05' W 091°10'2 4.0
2018-Jul-14 06:25N 33°02' W 091°09'2 4.0
2018-Jul-14 05:49N 33°00' W 091°09'1 4.3
2018-Jul-14 05:30N 32°59' W 091°10'2 3.4
2018-Jul-14 05:00N 32°57' W 091°09'2 2.6
2018-Jul-14 04:19N 32°57' W 091°07'1 2.0
2018-Jul-14 03:47N 32°57' W 091°05'0 0.0
2018-Jul-14 03:30N 32°57' W 091°05'0 0.4
2018-Jul-14 03:00N 32°57' W 091°05'1 2.4
2018-Jul-14 02:30N 32°56' W 091°04'2 3.4
2018-Jul-14 02:00N 32°54' W 091°04'1 1.3
2018-Jul-14 01:30N 32°54' W 091°04'2 4.1
2018-Jul-14 00:59N 32°52' W 091°06'2 3.8
2018-Jul-14 00:28N 32°51' W 091°08'2 3.8
2018-Jul-13 23:51N 32°49' W 091°09'1 3.9
2018-Jul-13 23:30N 32°48' W 091°09'2 3.9
2018-Jul-13 22:55N 32°45' W 091°09'6 2.6
2018-Jul-13 20:48N 32°41' W 091°05'2 4.7
2018-Jul-13 20:28N 32°40' W 091°06'2 4.0
2018-Jul-13 19:59N 32°40' W 091°08'2 4.1
2018-Jul-13 19:30N 32°38' W 091°09'2 4.3
2018-Jul-13 19:00N 32°36' W 091°08'2 4.1
2018-Jul-13 18:30N 32°34' W 091°06'2 3.8
2018-Jul-13 18:00N 32°32' W 091°06'2 4.3
2018-Jul-13 17:30N 32°30' W 091°07'2 4.3
2018-Jul-13 17:00N 32°28' W 091°06'2 4.0
2018-Jul-13 16:30N 32°27' W 091°05'2 4.2
2018-Jul-13 16:00N 32°26' W 091°02'2 4.2
2018-Jul-13 15:30N 32°25' W 091°00'2 3.6
2018-Jul-13 15:00N 32°24' W 090°60'3 3.2
2018-Jul-13 14:00N 32°21' W 090°57'2 4.1
2018-Jul-13 13:30N 32°20' W 090°55'2 3.4
2018-Jul-13 13:00N 32°19' W 090°55'1 1.9
2018-Jul-13 12:30N 32°18' W 090°55'2 3.6
2018-Jul-13 12:00N 32°17' W 090°57'2 3.9
2018-Jul-13 11:30N 32°15' W 090°58'2 4.3
2018-Jul-13 11:00N 32°13' W 090°59'2 3.5
2018-Jul-13 10:30N 32°12' W 090°60'2 3.7
2018-Jul-13 10:00N 32°10' W 090°60'2 3.9
2018-Jul-13 09:30N 32°08' W 091°01'2 3.5
2018-Jul-13 09:00N 32°07' W 091°03'2 3.5
2018-Jul-13 08:28N 32°08' W 091°05'2 3.5
2018-Jul-13 08:00N 32°07' W 091°07'2 3.4
2018-Jul-13 07:30N 32°06' W 091°06'2 4.5
2018-Jul-13 07:00N 32°04' W 091°04'2 3.9
2018-Jul-13 06:30N 32°02' W 091°04'2 4.0
2018-Jul-13 06:00N 32°01' W 091°05'2 4.0
2018-Jul-13 05:30N 31°59' W 091°07'2 3.9
2018-Jul-13 05:00N 31°59' W 091°09'2 3.8
2018-Jul-13 04:30N 31°58' W 091°11'4 4.2
2018-Jul-13 03:37N 31°54' W 091°12'1 4.1
2018-Jul-13 03:26N 31°54' W 091°12'8 3.8
2018-Jul-13 01:21N 31°51' W 091°21'  
2018-Jul-10 03:50N 29°56' W 090°22'  
2018-Jul-07 20:00N 31°57' W 091°11'4 7.6
2018-Jul-07 19:25N 31°59' W 091°07'4 8.6
2018-Jul-07 19:00N 32°02' W 091°04'4 7.7
2018-Jul-07 18:29N 32°06' W 091°06'2 4.7
2018-Jul-07 17:59N 32°08' W 091°05'4 8.2
2018-Jul-07 17:30N 32°08' W 091°01'4 8.9
2018-Jul-07 17:00N 32°12' W 090°59'4 8.4
2018-Jul-07 16:30N 32°16' W 090°58'5 9.0
2018-Jul-07 16:00N 32°20' W 090°54'4 7.2
2018-Jul-07 15:30N 32°21' W 090°58'3 6.4
2018-Jul-07 15:00N 32°24' W 090°59'4 8.7
2018-Jul-07 14:30N 32°26' W 091°04'5 9.2
2018-Jul-07 14:00N 32°30' W 091°07'5 9.3
2018-Jul-07 13:30N 32°35' W 091°07'9 7.5
2018-Jul-07 12:15N 32°44' W 091°04'5 8.9
2018-Jul-07 11:44N 32°45' W 091°09'  

Dump ship's entire track history